createdAt,value
2022-09-26T00:01:13.812Z,28.05
2022-09-26T00:06:09.448Z,24.77
2022-09-26T00:08:37.254Z,28.33
2022-09-26T00:11:07.524Z,30.23
2022-09-26T00:13:36.474Z,25.80
2022-09-26T00:16:04.147Z,25.40
2022-09-26T00:18:30.793Z,24.17
2022-09-26T00:21:11.737Z,25.15
2022-09-26T00:23:39.254Z,24.05
2022-09-26T00:26:06.665Z,29.33
2022-09-26T00:28:33.585Z,29.17
2022-09-26T00:31:09.410Z,22.58
2022-09-26T00:33:36.811Z,30.83
2022-09-26T00:36:04.529Z,25.60
2022-09-26T00:38:31.287Z,31.33
2022-09-26T00:40:58.198Z,23.92
2022-09-26T00:43:40.532Z,24.95
2022-09-26T00:46:37.457Z,21.23
2022-09-26T00:49:22.499Z,23.58
2022-09-26T00:52:15.999Z,21.02
2022-09-26T00:54:47.084Z,24.02
2022-09-26T00:57:17.718Z,23.05
2022-09-26T00:59:49.445Z,26.13
2022-09-26T01:02:17.274Z,24.13
2022-09-26T01:04:46.160Z,23.80
2022-09-26T01:07:19.051Z,30.50
2022-09-26T01:09:47.568Z,22.45
2022-09-26T01:12:15.652Z,23.38
2022-09-26T01:14:43.856Z,20.23
2022-09-26T01:17:11.647Z,26.80
2022-09-26T01:20:19.785Z,25.95
2022-09-26T01:22:55.314Z,19.80
2022-09-26T01:25:47.996Z,21.23
2022-09-26T01:28:32.042Z,24.80
2022-09-26T01:31:30.991Z,21.65
2022-09-26T01:34:09.790Z,20.17
2022-09-26T01:36:51.565Z,19.27
2022-09-26T01:39:39.723Z,18.60
2022-09-26T01:42:16.204Z,21.85
2022-09-26T01:44:58.095Z,22.40
2022-09-26T01:47:30.306Z,21.10
2022-09-26T01:50:11.447Z,21.50
2022-09-26T01:52:48.611Z,24.90
2022-09-26T01:55:41.012Z,19.10
2022-09-26T01:58:20.893Z,18.83
2022-09-26T02:03:21.240Z,19.17
2022-09-26T02:05:53.524Z,19.67
2022-09-26T02:08:47.791Z,21.27
2022-09-26T02:11:19.607Z,19.08
2022-09-26T02:13:58.564Z,18.77
2022-09-26T02:16:57.336Z,19.50
2022-09-26T02:19:31.953Z,18.10
2022-09-26T02:22:00.625Z,21.95
2022-09-26T02:24:28.908Z,16.75
2022-09-26T02:26:55.744Z,17.67
2022-09-26T02:29:22.410Z,24.48
2022-09-26T02:31:56.416Z,19.92
2022-09-26T02:34:25.304Z,18.88
2022-09-26T02:36:55.069Z,19.17
2022-09-26T02:39:21.912Z,21.10
2022-09-26T02:42:00.692Z,17.40
2022-09-26T02:44:48.616Z,18.88
2022-09-26T02:47:21.204Z,19.58
2022-09-26T02:50:00.366Z,19.85
2022-09-26T02:52:36.471Z,18.77
2022-09-26T02:55:20.100Z,16.90
2022-09-26T02:58:04.108Z,21.13
2022-09-26T03:00:49.061Z,20.35
2022-09-26T03:03:22.835Z,21.05
2022-09-26T03:05:53.565Z,24.05
2022-09-26T03:08:27.141Z,23.67
2022-09-26T03:10:58.513Z,24.52
2022-09-26T03:13:28.052Z,24.92
2022-09-26T03:15:58.688Z,27.85
2022-09-26T03:18:32.236Z,29.23
2022-09-26T03:20:59.630Z,30.05
2022-09-26T03:23:27.110Z,24.33
2022-09-26T03:26:01.368Z,25.08
2022-09-26T03:28:30.810Z,22.50
2022-09-26T03:30:59.417Z,24.35
2022-09-26T03:33:26.064Z,20.70
2022-09-26T03:35:52.924Z,22.48
2022-09-26T03:38:19.672Z,20.27
2022-09-26T03:40:46.639Z,20.95
2022-09-26T03:43:13.485Z,18.63
2022-09-26T03:45:40.134Z,18.25
2022-09-26T03:48:06.777Z,18.60
2022-09-26T03:50:34.014Z,18.90
2022-09-26T03:53:03.649Z,21.92
2022-09-26T03:55:30.315Z,18.17
2022-09-26T03:58:00.147Z,20.15
2022-09-26T04:02:54.088Z,18.33
2022-09-26T04:05:20.736Z,17.58
2022-09-26T04:07:47.372Z,19.40
2022-09-26T04:10:14.276Z,18.58
2022-09-26T04:12:40.877Z,18.30
2022-09-26T04:15:08.368Z,16.15
2022-09-26T04:17:35.181Z,19.88
2022-09-26T04:20:02.126Z,19.77
2022-09-26T04:22:28.763Z,19.23
2022-09-26T04:24:55.409Z,21.77
2022-09-26T04:27:22.296Z,19.65
2022-09-26T04:29:48.894Z,16.58
2022-09-26T04:32:16.168Z,19.35
2022-09-26T04:34:42.832Z,15.80
2022-09-26T04:37:10.232Z,17.52
2022-09-26T04:39:37.063Z,18.02
2022-09-26T04:42:04.405Z,20.75
2022-09-26T04:44:31.012Z,18.98
2022-09-26T04:46:57.672Z,18.75
2022-09-26T04:49:24.281Z,20.27
2022-09-26T04:51:52.112Z,24.42
2022-09-26T04:54:18.981Z,18.92
2022-09-26T04:56:45.834Z,21.90
2022-09-26T04:59:12.530Z,17.92
2022-09-26T05:01:39.317Z,16.90
2022-09-26T05:04:06.144Z,18.85
2022-09-26T05:06:32.764Z,19.98
2022-09-26T05:08:59.792Z,29.42
2022-09-26T05:11:26.494Z,19.40
2022-09-26T05:13:54.011Z,25.92
2022-09-26T05:16:21.617Z,35.88
2022-09-26T05:18:52.349Z,27.27
2022-09-26T05:21:19.853Z,30.08
2022-09-26T05:24:04.966Z,28.48
2022-09-26T05:26:44.274Z,24.02
2022-09-26T05:29:12.161Z,27.13
2022-09-26T05:31:40.053Z,28.85
2022-09-26T05:34:13.084Z,32.72
2022-09-26T05:36:42.776Z,31.02
2022-09-26T05:39:29.561Z,34.10
2022-09-26T05:41:58.362Z,35.70
2022-09-26T05:44:25.007Z,42.65
2022-09-26T05:46:52.109Z,33.53
2022-09-26T05:49:18.913Z,33.85
2022-09-26T05:51:46.537Z,29.73
2022-09-26T05:54:13.579Z,28.48
2022-09-26T05:56:40.400Z,29.08
2022-09-26T05:59:07.275Z,25.33
2022-09-26T06:01:34.918Z,24.60
2022-09-26T06:04:03.037Z,27.75
2022-09-26T06:06:30.404Z,42.80
2022-09-26T06:08:57.289Z,28.08
2022-09-26T06:11:28.052Z,34.42
2022-09-26T06:13:55.856Z,33.83
2022-09-26T06:16:22.648Z,32.67
2022-09-26T06:18:51.380Z,31.50
2022-09-26T06:21:19.600Z,34.95
2022-09-26T06:23:46.282Z,32.88
2022-09-26T06:26:24.254Z,22.48
2022-09-26T06:28:58.043Z,29.63
2022-09-26T06:31:26.231Z,25.67
2022-09-26T06:33:55.861Z,25.08
2022-09-26T06:36:24.004Z,29.35
2022-09-26T06:38:51.229Z,24.77
2022-09-26T06:41:17.987Z,28.13
2022-09-26T06:43:45.429Z,26.73
2022-09-26T06:46:13.145Z,22.00
2022-09-26T06:48:39.768Z,23.52
2022-09-26T06:51:06.631Z,22.70
2022-09-26T06:53:35.129Z,22.92
2022-09-26T06:56:02.495Z,21.55
2022-09-26T06:58:29.195Z,19.67
2022-09-26T07:00:56.664Z,21.30
2022-09-26T07:03:25.296Z,24.98
2022-09-26T07:05:54.677Z,24.10
2022-09-26T07:08:28.863Z,23.08
2022-09-26T07:11:31.212Z,25.00
2022-09-26T07:13:54.622Z,29.55
2022-09-26T07:16:21.878Z,26.40
2022-09-26T07:18:48.514Z,24.05
2022-09-26T07:21:15.137Z,30.92
2022-09-26T07:23:41.734Z,25.33
2022-09-26T07:26:08.326Z,22.13
2022-09-26T07:28:34.995Z,23.95
2022-09-26T07:31:01.717Z,24.65
2022-09-26T07:33:28.386Z,18.77
2022-09-26T07:35:56.801Z,21.33
2022-09-26T07:38:24.504Z,22.98
2022-09-26T07:40:54.353Z,15.50
2022-09-26T07:43:35.606Z,21.65
2022-09-26T07:46:28.065Z,17.58
2022-09-26T07:49:13.735Z,16.70
2022-09-26T07:51:40.418Z,13.82
2022-09-26T07:54:07.181Z,14.23
2022-09-26T07:56:34.506Z,14.38
2022-09-26T07:59:05.261Z,20.02
2022-09-26T08:01:32.965Z,14.88
2022-09-26T08:03:59.834Z,41.03
2022-09-26T08:06:27.635Z,15.00
2022-09-26T08:08:55.368Z,13.55
2022-09-26T08:11:22.477Z,18.08
2022-09-26T08:13:50.054Z,13.77
2022-09-26T08:16:23.810Z,10.60
2022-09-26T08:18:52.136Z,11.80
2022-09-26T08:21:19.177Z,14.27
2022-09-26T08:23:46.958Z,14.80
2022-09-26T08:26:14.005Z,15.85
2022-09-26T08:28:40.888Z,11.05
2022-09-26T08:31:08.296Z,10.80
2022-09-26T08:33:39.528Z,10.02
2022-09-26T08:36:08.499Z,11.23
2022-09-26T08:38:36.459Z,10.60
2022-09-26T08:41:21.538Z,10.50
2022-09-26T08:44:08.480Z,11.43
2022-09-26T08:47:02.506Z,12.10
2022-09-26T08:49:40.479Z,12.15
2022-09-26T08:52:32.835Z,13.82
2022-09-26T08:55:12.145Z,15.25
2022-09-26T08:57:54.264Z,12.10
2022-09-26T09:00:24.296Z,11.88
2022-09-26T09:03:18.648Z,12.77
2022-09-26T09:05:53.084Z,12.00
2022-09-26T09:08:24.160Z,14.43
2022-09-26T09:11:14.977Z,15.45
2022-09-26T09:14:01.902Z,39.28
2022-09-26T09:16:55.866Z,48.28
2022-09-26T09:19:57.832Z,18.17
2022-09-26T09:22:27.233Z,52.78
2022-09-26T09:25:01.348Z,56.15
2022-09-26T09:27:54.423Z,11.52
2022-09-26T09:30:25.922Z,15.75
2022-09-26T09:33:00.272Z,10.75
2022-09-26T09:35:39.125Z,20.00
2022-09-26T09:38:09.083Z,10.07
2022-09-26T09:40:41.337Z,7.47
2022-09-26T09:43:17.424Z,7.25
2022-09-26T09:45:50.708Z,8.45
2022-09-26T09:48:17.493Z,8.50
2022-09-26T09:51:17.180Z,6.90
2022-09-26T09:56:47.066Z,8.02
2022-09-26T09:59:42.433Z,7.30
2022-09-26T10:02:19.015Z,6.70
2022-09-26T10:05:24.540Z,8.68
2022-09-26T10:07:58.483Z,10.73
2022-09-26T10:10:48.202Z,6.45
2022-09-26T10:15:54.453Z,6.40
2022-09-26T10:18:26.163Z,7.03
2022-09-26T10:20:55.322Z,9.05
2022-09-26T10:23:42.700Z,9.73
2022-09-26T10:26:11.848Z,7.43
2022-09-26T10:29:00.481Z,6.65
2022-09-26T10:31:42.263Z,7.03
2022-09-26T10:34:39.399Z,6.38
2022-09-26T10:37:29.800Z,6.28
2022-09-26T10:40:17.413Z,5.10
2022-09-26T10:42:47.031Z,4.70
2022-09-26T10:45:18.034Z,6.38
2022-09-26T10:47:47.150Z,5.63
2022-09-26T10:50:18.633Z,7.28
2022-09-26T10:52:50.664Z,5.95
2022-09-26T10:55:26.194Z,9.13
2022-09-26T10:57:59.708Z,12.45
2022-09-26T11:01:00.808Z,5.03
2022-09-26T11:03:41.401Z,5.55
2022-09-26T11:06:26.790Z,7.85
2022-09-26T11:08:58.452Z,5.95
2022-09-26T11:11:26.730Z,5.60
2022-09-26T11:13:56.229Z,7.70
2022-09-26T11:16:22.901Z,6.32
2022-09-26T11:19:03.140Z,6.85
2022-09-26T11:21:52.728Z,6.70
2022-09-26T11:27:11.433Z,4.97
2022-09-26T11:29:55.838Z,5.28
2022-09-26T11:32:30.330Z,7.28
2022-09-26T11:35:06.140Z,6.03
2022-09-26T11:37:38.717Z,5.15
2022-09-26T11:40:37.012Z,5.75
2022-09-26T11:43:18.740Z,5.43
2022-09-26T11:45:57.545Z,4.97
2022-09-26T11:48:59.688Z,6.20
2022-09-26T11:51:54.262Z,5.45
2022-09-26T11:54:36.830Z,6.03
2022-09-26T11:57:24.328Z,5.28
2022-09-26T12:00:09.077Z,6.30
2022-09-26T12:02:35.805Z,8.23
2022-09-26T12:05:27.042Z,6.78
2022-09-26T12:08:22.844Z,5.15
2022-09-26T12:11:01.645Z,5.60
2022-09-26T12:14:03.382Z,6.80
2022-09-26T12:16:48.674Z,5.85
2022-09-26T12:19:50.948Z,6.30
2022-09-26T12:22:29.859Z,5.38
2022-09-26T12:25:20.595Z,6.85
2022-09-26T12:27:49.976Z,5.18
2022-09-26T12:30:33.215Z,4.97
2022-09-26T12:33:27.721Z,5.13
2022-09-26T12:36:11.029Z,4.88
2022-09-26T12:38:44.864Z,10.05
2022-09-26T12:41:32.752Z,5.30
2022-09-26T12:44:22.189Z,3.90
2022-09-26T12:47:10.779Z,4.75
2022-09-26T12:49:49.511Z,4.28
2022-09-26T12:52:50.151Z,5.20
2022-09-26T12:55:37.494Z,4.57
2022-09-26T12:58:29.676Z,4.63
2022-09-26T13:01:23.754Z,5.15
2022-09-26T13:03:59.408Z,4.55
2022-09-26T13:06:35.002Z,4.10
2022-09-26T13:09:07.739Z,4.68
2022-09-26T13:12:10.766Z,3.70
2022-09-26T13:15:12.933Z,6.55
2022-09-26T13:17:46.087Z,7.38
2022-09-26T13:20:43.458Z,4.05
2022-09-26T13:23:21.995Z,3.67
2022-09-26T13:26:20.336Z,4.47
2022-09-26T13:29:17.216Z,4.32
2022-09-26T13:32:34.857Z,5.15
2022-09-26T13:35:22.083Z,4.10
2022-09-26T13:37:59.144Z,4.22
2022-09-26T13:40:58.358Z,3.78
2022-09-26T13:43:47.457Z,4.00
2022-09-26T13:46:47.891Z,4.60
2022-09-26T13:49:37.026Z,3.60
2022-09-26T13:52:46.830Z,4.95
2022-09-26T13:55:19.975Z,4.30
2022-09-26T13:58:06.829Z,3.50
2022-09-26T14:00:40.553Z,4.05
2022-09-26T14:03:09.366Z,4.03
2022-09-26T14:05:42.185Z,4.88
2022-09-26T14:08:42.676Z,3.35
2022-09-26T14:11:49.480Z,3.90
2022-09-26T14:14:19.189Z,4.10
2022-09-26T14:19:39.264Z,3.83
2022-09-26T14:22:21.049Z,4.30
2022-09-26T14:24:49.324Z,3.63
2022-09-26T14:27:15.940Z,5.97
2022-09-26T14:29:44.751Z,4.20
2022-09-26T14:32:38.765Z,4.27
2022-09-26T14:35:28.640Z,5.82
2022-09-26T14:38:13.303Z,7.18
2022-09-26T14:40:55.962Z,7.45
2022-09-26T14:43:27.710Z,10.77
2022-09-26T14:46:17.708Z,9.95
2022-09-26T14:48:45.534Z,30.65
2022-09-26T14:51:15.852Z,19.23
2022-09-26T14:53:48.454Z,15.48
2022-09-26T14:56:29.897Z,23.23
2022-09-26T14:59:24.621Z,21.63
2022-09-26T15:02:31.341Z,17.67
2022-09-26T15:05:12.992Z,21.52
2022-09-26T15:07:48.677Z,19.85
2022-09-26T15:10:23.416Z,14.63
2022-09-26T15:13:15.393Z,15.00
2022-09-26T15:16:17.615Z,19.17
2022-09-26T15:18:54.185Z,13.27
2022-09-26T15:21:44.202Z,12.68
2022-09-26T15:24:25.015Z,15.65
2022-09-26T15:26:51.987Z,19.50
2022-09-26T15:29:18.821Z,13.30
2022-09-26T15:31:47.184Z,31.25
2022-09-26T15:34:36.795Z,36.65
2022-09-26T15:37:15.837Z,44.55
2022-09-26T15:39:43.015Z,37.45
2022-09-26T15:42:28.203Z,41.78
2022-09-26T15:45:01.172Z,97.38
2022-09-26T15:47:31.738Z,111.15
2022-09-26T15:50:17.507Z,84.43
2022-09-26T15:52:55.189Z,125.82
2022-09-26T15:55:28.536Z,70.72
2022-09-26T15:57:59.336Z,98.18
2022-09-26T16:00:26.685Z,254.77
2022-09-26T16:02:53.862Z,391.15
2022-09-26T16:05:21.807Z,258.42
2022-09-26T16:07:52.244Z,144.68
2022-09-26T16:10:28.398Z,97.28
2022-09-26T16:12:58.344Z,67.15
2022-09-26T16:15:29.680Z,35.33
2022-09-26T16:17:58.492Z,35.78
2022-09-26T16:20:29.519Z,25.40
2022-09-26T16:23:05.187Z,17.02
2022-09-26T16:25:35.809Z,17.83
2022-09-26T16:28:07.435Z,18.58
2022-09-26T16:30:37.772Z,17.25
2022-09-26T16:33:11.196Z,15.70
2022-09-26T16:35:46.630Z,21.40
2022-09-26T16:38:28.973Z,19.77
2022-09-26T16:41:03.752Z,17.13
2022-09-26T16:43:32.347Z,21.05
2022-09-26T16:46:14.882Z,19.30
2022-09-26T16:48:50.881Z,14.50
2022-09-26T16:51:21.856Z,19.95
2022-09-26T16:53:53.443Z,28.05
2022-09-26T16:56:23.449Z,50.17
2022-09-26T16:58:55.460Z,45.50
2022-09-26T17:01:41.526Z,41.63
2022-09-26T17:04:18.003Z,42.95
2022-09-26T17:06:45.639Z,38.65
2022-09-26T17:09:23.044Z,36.80
2022-09-26T17:11:53.399Z,39.67
2022-09-26T17:14:24.105Z,35.78
2022-09-26T17:16:55.250Z,25.23
2022-09-26T17:19:24.016Z,24.38
2022-09-26T17:21:51.567Z,22.20
2022-09-26T17:24:27.973Z,20.50
2022-09-26T17:27:04.667Z,23.30
2022-09-26T17:29:40.059Z,25.30
2022-09-26T17:32:14.152Z,19.13
2022-09-26T17:34:41.084Z,21.15
2022-09-26T17:37:09.741Z,20.60
2022-09-26T17:39:36.347Z,16.55
2022-09-26T17:42:04.193Z,10.98
2022-09-26T17:44:31.704Z,10.02
2022-09-26T17:46:59.084Z,8.55
2022-09-26T17:49:31.183Z,7.40
2022-09-26T17:52:00.645Z,7.28
2022-09-26T17:54:42.642Z,9.27
2022-09-26T17:57:14.273Z,10.68
2022-09-26T17:59:42.652Z,12.10
2022-09-26T18:02:31.033Z,9.73
2022-09-26T18:05:01.031Z,12.85
2022-09-26T18:07:35.260Z,10.70
2022-09-26T18:10:08.232Z,12.13
2022-09-26T18:12:35.122Z,13.68
2022-09-26T18:15:03.781Z,12.80
2022-09-26T18:17:30.893Z,12.85
2022-09-26T18:19:57.479Z,11.70
2022-09-26T18:22:31.676Z,13.35
2022-09-26T18:25:04.723Z,20.50
2022-09-26T18:27:36.848Z,16.35
2022-09-26T18:30:04.553Z,13.82
2022-09-26T18:32:34.040Z,12.65
2022-09-26T18:35:01.018Z,20.73
2022-09-26T18:37:27.641Z,24.92
2022-09-26T18:39:56.371Z,19.42
2022-09-26T18:42:24.775Z,17.70
2022-09-26T18:45:00.446Z,17.15
2022-09-26T18:47:27.152Z,18.08
2022-09-26T18:49:53.849Z,25.75
2022-09-26T18:52:20.665Z,27.67
2022-09-26T18:55:07.334Z,22.65
2022-09-26T18:57:52.694Z,16.48
2022-09-26T19:00:20.583Z,14.50
2022-09-26T19:02:50.169Z,12.52
2022-09-26T19:05:17.755Z,12.48
2022-09-26T19:07:45.360Z,14.07
2022-09-26T19:10:22.262Z,18.20
2022-09-26T19:12:49.076Z,15.30
2022-09-26T19:15:16.174Z,16.55
2022-09-26T19:17:43.425Z,11.50
2022-09-26T19:20:10.511Z,10.18
2022-09-26T19:22:37.431Z,14.20
2022-09-26T19:25:04.477Z,12.82
2022-09-26T19:27:49.793Z,11.07
2022-09-26T19:30:20.080Z,14.52
2022-09-26T19:32:49.749Z,12.05
2022-09-26T19:35:33.963Z,14.25
2022-09-26T19:38:04.550Z,12.18
2022-09-26T19:40:31.276Z,14.25
2022-09-26T19:42:58.136Z,13.00
2022-09-26T19:45:26.244Z,13.90
2022-09-26T19:47:56.500Z,15.10
2022-09-26T19:50:26.812Z,84.15
2022-09-26T19:52:55.296Z,88.30
2022-09-26T19:55:25.181Z,116.07
2022-09-26T20:00:19.983Z,278.77
2022-09-26T20:02:50.680Z,172.65
2022-09-26T20:05:25.722Z,101.60
2022-09-26T20:07:53.320Z,68.60
2022-09-26T20:10:25.276Z,49.42
2022-09-26T20:12:52.277Z,54.10
2022-09-26T20:15:23.308Z,59.20
2022-09-26T20:17:50.865Z,67.35
2022-09-26T20:20:24.465Z,90.18
2022-09-26T20:22:53.086Z,71.25
2022-09-26T20:25:28.123Z,29.58
2022-09-26T20:27:55.574Z,34.72
2022-09-26T20:30:41.945Z,27.83
2022-09-26T20:33:10.117Z,27.42
2022-09-26T20:35:42.624Z,28.10
2022-09-26T20:38:21.078Z,31.00
2022-09-26T20:40:49.478Z,102.45
2022-09-26T20:43:25.153Z,232.45
2022-09-26T20:45:51.911Z,131.80
2022-09-26T20:48:22.745Z,98.43
2022-09-26T20:50:49.939Z,38.42
2022-09-26T20:53:18.596Z,30.85
2022-09-26T20:55:46.733Z,30.95
2022-09-26T20:58:13.775Z,35.05
2022-09-26T21:00:42.574Z,31.52
2022-09-26T21:03:13.727Z,29.02
2022-09-26T21:05:40.431Z,33.05
2022-09-26T21:08:14.576Z,31.45
2022-09-26T21:10:41.687Z,34.75
2022-09-26T21:13:08.992Z,33.25
2022-09-26T21:15:37.128Z,43.47
2022-09-26T21:18:03.858Z,38.08
2022-09-26T21:20:32.774Z,36.72
2022-09-26T21:23:02.935Z,216.97
2022-09-26T21:25:31.688Z,91.30
2022-09-26T21:28:28.488Z,38.97
2022-09-26T21:30:58.868Z,75.47
2022-09-26T21:33:25.788Z,33.47
2022-09-26T21:35:53.128Z,34.53
2022-09-26T21:38:21.141Z,73.28
2022-09-26T21:40:51.920Z,34.78
2022-09-26T21:43:22.938Z,48.78
2022-09-26T21:45:49.649Z,37.72
2022-09-26T21:48:16.812Z,33.70
2022-09-26T21:51:04.276Z,26.30
2022-09-26T21:53:42.329Z,27.67
2022-09-26T21:56:22.072Z,30.90
2022-09-26T21:58:49.724Z,71.38
2022-09-26T22:01:16.788Z,227.27
2022-09-26T22:03:43.470Z,59.80
2022-09-26T22:06:10.649Z,66.82
2022-09-26T22:08:39.386Z,76.70
2022-09-26T22:11:10.023Z,62.63
2022-09-26T22:13:37.577Z,85.07
2022-09-26T22:16:07.862Z,64.15
2022-09-26T22:18:36.602Z,93.18
2022-09-26T22:21:04.793Z,50.50
2022-09-26T22:23:35.667Z,80.78
2022-09-26T22:26:03.173Z,88.20
2022-09-26T22:28:30.185Z,64.38
2022-09-26T22:31:01.821Z,39.33
2022-09-26T22:33:29.513Z,82.10
2022-09-26T22:35:56.327Z,54.55
2022-09-26T22:38:22.967Z,42.92
2022-09-26T22:40:57.435Z,25.05
2022-09-26T22:43:24.992Z,26.67
2022-09-26T22:45:51.956Z,48.45
2022-09-26T22:48:19.159Z,46.28
2022-09-26T22:50:46.337Z,103.22
2022-09-26T22:53:12.969Z,58.63
2022-09-26T22:55:39.653Z,59.97
2022-09-26T22:58:06.288Z,34.50
2022-09-26T23:00:32.896Z,35.30
2022-09-26T23:02:59.612Z,31.50
2022-09-26T23:05:26.239Z,36.78
2022-09-26T23:07:54.662Z,35.65
2022-09-26T23:10:22.306Z,29.65
2022-09-26T23:12:50.595Z,43.65
2022-09-26T23:15:18.328Z,89.35
2022-09-26T23:17:46.549Z,34.58
2022-09-26T23:20:13.155Z,57.55
2022-09-26T23:22:39.870Z,38.22
2022-09-26T23:25:08.197Z,81.07
2022-09-26T23:27:35.200Z,115.82
2022-09-26T23:30:02.013Z,48.90
2022-09-26T23:32:28.707Z,118.53
2022-09-26T23:34:55.297Z,80.82
2022-09-26T23:37:21.951Z,33.75
2022-09-26T23:39:48.968Z,126.85
2022-09-26T23:42:15.563Z,34.40
2022-09-26T23:44:42.215Z,24.75
2022-09-26T23:47:08.831Z,86.18
2022-09-26T23:49:35.448Z,18.13
2022-09-26T23:52:02.755Z,136.10
2022-09-26T23:54:29.374Z,31.52
2022-09-26T23:56:55.968Z,42.53
2022-09-26T23:59:22.774Z,188.73
